sensor_id;sensor_type;location;lat;lon;timestamp;temperature;humidity
20744;DHT22;56303;52.160;-0.428;2024-03-02T00:00:21;3.50;99.90
20744;DHT22;56303;52.160;-0.428;2024-03-02T00:02:49;3.50;99.90
20744;DHT22;56303;52.160;-0.428;2024-03-02T00:05:20;3.30;99.90
20744;DHT22;56303;52.160;-0.428;2024-03-02T00:07:57;3.10;99.90
20744;DHT22;56303;52.160;-0.428;2024-03-02T00:10:40;2.90;99.90
20744;DHT22;56303;52.160;-0.428;2024-03-02T00:13:08;3.00;99.90
20744;DHT22;56303;52.160;-0.428;2024-03-02T00:15:47;3.00;99.90
20744;DHT22;56303;52.160;-0.428;2024-03-02T00:18:18;3.10;99.90
20744;DHT22;56303;52.160;-0.428;2024-03-02T00:20:45;2.90;99.90
20744;DHT22;56303;52.160;-0.428;2024-03-02T00:23:15;2.70;99.90
20744;DHT22;56303;52.160;-0.428;2024-03-02T00:25:49;2.60;99.90
20744;DHT22;56303;52.160;-0.428;2024-03-02T00:28:21;2.60;99.90
20744;DHT22;56303;52.160;-0.428;2024-03-02T00:31:05;2.70;99.90
20744;DHT22;56303;52.160;-0.428;2024-03-02T00:33:48;2.70;99.90
20744;DHT22;56303;52.160;-0.428;2024-03-02T00:36:17;2.80;99.90
20744;DHT22;56303;52.160;-0.428;2024-03-02T00:38:49;3.00;99.90
20744;DHT22;56303;52.160;-0.428;2024-03-02T00:41:29;2.80;99.90
20744;DHT22;56303;52.160;-0.428;2024-03-02T00:44:03;2.70;99.90
20744;DHT22;56303;52.160;-0.428;2024-03-02T00:46:37;2.30;99.90
20744;DHT22;56303;52.160;-0.428;2024-03-02T00:49:11;2.90;99.90
20744;DHT22;56303;52.160;-0.428;2024-03-02T00:51:39;3.00;99.90
20744;DHT22;56303;52.160;-0.428;2024-03-02T00:54:08;3.00;99.90
20744;DHT22;56303;52.160;-0.428;2024-03-02T00:56:36;2.90;99.90
20744;DHT22;56303;52.160;-0.428;2024-03-02T00:59:03;2.90;99.90
20744;DHT22;56303;52.160;-0.428;2024-03-02T01:01:30;3.00;99.90
20744;DHT22;56303;52.160;-0.428;2024-03-02T01:03:57;2.90;99.90
20744;DHT22;56303;52.160;-0.428;2024-03-02T01:06:24;2.90;99.90
20744;DHT22;56303;52.160;-0.428;2024-03-02T01:08:51;2.90;99.90
20744;DHT22;56303;52.160;-0.428;2024-03-02T01:11:19;2.90;99.90
20744;DHT22;56303;52.160;-0.428;2024-03-02T01:13:50;3.00;99.90
20744;DHT22;56303;52.160;-0.428;2024-03-02T01:16:17;2.90;99.90
20744;DHT22;56303;52.160;-0.428;2024-03-02T01:18:44;2.90;99.90
20744;DHT22;56303;52.160;-0.428;2024-03-02T01:21:11;3.00;99.90
20744;DHT22;56303;52.160;-0.428;2024-03-02T01:23:39;3.00;99.90
20744;DHT22;56303;52.160;-0.428;2024-03-02T01:26:05;3.10;99.90
20744;DHT22;56303;52.160;-0.428;2024-03-02T01:28:34;3.10;99.90
20744;DHT22;56303;52.160;-0.428;2024-03-02T01:31:00;3.30;99.90
20744;DHT22;56303;52.160;-0.428;2024-03-02T01:33:28;4.30;99.90
20744;DHT22;56303;52.160;-0.428;2024-03-02T01:35:56;3.30;99.90
20744;DHT22;56303;52.160;-0.428;2024-03-02T01:38:23;3.40;99.90
20744;DHT22;56303;52.160;-0.428;2024-03-02T01:40:50;3.40;99.90
20744;DHT22;56303;52.160;-0.428;2024-03-02T01:43:18;3.70;99.90
20744;DHT22;56303;52.160;-0.428;2024-03-02T01:45:45;3.90;99.90
20744;DHT22;56303;52.160;-0.428;2024-03-02T01:48:12;3.80;99.90
20744;DHT22;56303;52.160;-0.428;2024-03-02T01:50:39;4.10;99.90
20744;DHT22;56303;52.160;-0.428;2024-03-02T01:53:07;4.10;99.90
20744;DHT22;56303;52.160;-0.428;2024-03-02T01:55:35;3.90;99.90
20744;DHT22;56303;52.160;-0.428;2024-03-02T01:58:02;4.10;99.90
20744;DHT22;56303;52.160;-0.428;2024-03-02T02:00:29;4.20;99.90
20744;DHT22;56303;52.160;-0.428;2024-03-02T02:02:57;3.70;99.90
20744;DHT22;56303;52.160;-0.428;2024-03-02T02:05:24;4.10;99.90
20744;DHT22;56303;52.160;-0.428;2024-03-02T02:07:51;4.00;99.90
20744;DHT22;56303;52.160;-0.428;2024-03-02T02:10:18;4.00;99.90
20744;DHT22;56303;52.160;-0.428;2024-03-02T02:12:45;3.90;99.90
20744;DHT22;56303;52.160;-0.428;2024-03-02T02:15:41;3.80;99.90
20744;DHT22;56303;52.160;-0.428;2024-03-02T02:18:09;3.80;99.90
20744;DHT22;56303;52.160;-0.428;2024-03-02T02:20:35;4.00;99.90
20744;DHT22;56303;52.160;-0.428;2024-03-02T02:23:03;4.60;99.90
20744;DHT22;56303;52.160;-0.428;2024-03-02T02:25:32;4.00;99.90
20744;DHT22;56303;52.160;-0.428;2024-03-02T02:27:59;3.90;99.90
20744;DHT22;56303;52.160;-0.428;2024-03-02T02:30:26;4.00;99.90
20744;DHT22;56303;52.160;-0.428;2024-03-02T02:32:54;3.90;99.90
20744;DHT22;56303;52.160;-0.428;2024-03-02T02:35:21;3.90;99.90
20744;DHT22;56303;52.160;-0.428;2024-03-02T02:37:48;3.90;99.90
20744;DHT22;56303;52.160;-0.428;2024-03-02T02:40:16;3.90;99.90
20744;DHT22;56303;52.160;-0.428;2024-03-02T02:42:45;4.10;99.90
20744;DHT22;56303;52.160;-0.428;2024-03-02T02:45:12;4.30;99.90
20744;DHT22;56303;52.160;-0.428;2024-03-02T02:47:42;4.70;99.90
20744;DHT22;56303;52.160;-0.428;2024-03-02T02:50:10;5.00;99.90
20744;DHT22;56303;52.160;-0.428;2024-03-02T02:52:39;5.00;99.90
20744;DHT22;56303;52.160;-0.428;2024-03-02T02:55:11;5.10;99.90
20744;DHT22;56303;52.160;-0.428;2024-03-02T02:57:42;5.10;99.90
20744;DHT22;56303;52.160;-0.428;2024-03-02T03:00:12;5.20;99.90
20744;DHT22;56303;52.160;-0.428;2024-03-02T03:02:49;5.10;99.90
20744;DHT22;56303;52.160;-0.428;2024-03-02T03:05:17;5.10;99.90
20744;DHT22;56303;52.160;-0.428;2024-03-02T03:07:44;5.00;99.90
20744;DHT22;56303;52.160;-0.428;2024-03-02T03:10:12;4.90;99.90
20744;DHT22;56303;52.160;-0.428;2024-03-02T03:12:40;4.80;99.90
20744;DHT22;56303;52.160;-0.428;2024-03-02T03:15:10;5.00;99.90
20744;DHT22;56303;52.160;-0.428;2024-03-02T03:17:38;5.00;99.90
20744;DHT22;56303;52.160;-0.428;2024-03-02T03:20:05;5.10;99.90
20744;DHT22;56303;52.160;-0.428;2024-03-02T03:22:33;5.10;99.90
20744;DHT22;56303;52.160;-0.428;2024-03-02T03:25:00;5.20;99.90
20744;DHT22;56303;52.160;-0.428;2024-03-02T03:27:27;4.90;99.90
20744;DHT22;56303;52.160;-0.428;2024-03-02T03:29:54;5.20;99.90
20744;DHT22;56303;52.160;-0.428;2024-03-02T03:32:21;5.30;99.90
20744;DHT22;56303;52.160;-0.428;2024-03-02T03:34:48;5.00;99.90
20744;DHT22;56303;52.160;-0.428;2024-03-02T03:37:15;5.30;99.90
20744;DHT22;56303;52.160;-0.428;2024-03-02T03:39:42;5.30;99.90
20744;DHT22;56303;52.160;-0.428;2024-03-02T03:42:09;5.20;99.90
20744;DHT22;56303;52.160;-0.428;2024-03-02T03:44:36;5.00;99.90
20744;DHT22;56303;52.160;-0.428;2024-03-02T03:47:03;5.20;99.90
20744;DHT22;56303;52.160;-0.428;2024-03-02T03:49:30;5.20;99.90
20744;DHT22;56303;52.160;-0.428;2024-03-02T03:51:57;4.90;99.90
20744;DHT22;56303;52.160;-0.428;2024-03-02T03:54:24;4.90;99.90
20744;DHT22;56303;52.160;-0.428;2024-03-02T03:56:51;5.00;99.90
20744;DHT22;56303;52.160;-0.428;2024-03-02T03:59:18;4.80;99.90
20744;DHT22;56303;52.160;-0.428;2024-03-02T04:01:45;4.80;99.90
20744;DHT22;56303;52.160;-0.428;2024-03-02T04:04:11;5.00;99.90
20744;DHT22;56303;52.160;-0.428;2024-03-02T04:06:38;5.00;99.90
20744;DHT22;56303;52.160;-0.428;2024-03-02T04:09:05;4.70;99.90
20744;DHT22;56303;52.160;-0.428;2024-03-02T04:11:32;4.50;99.90
20744;DHT22;56303;52.160;-0.428;2024-03-02T04:13:59;4.30;99.90
20744;DHT22;56303;52.160;-0.428;2024-03-02T04:16:26;4.00;99.90
20744;DHT22;56303;52.160;-0.428;2024-03-02T04:18:53;3.90;99.90
20744;DHT22;56303;52.160;-0.428;2024-03-02T04:21:21;4.00;99.90
20744;DHT22;56303;52.160;-0.428;2024-03-02T04:23:48;3.90;99.90
20744;DHT22;56303;52.160;-0.428;2024-03-02T04:26:15;3.80;99.90
20744;DHT22;56303;52.160;-0.428;2024-03-02T04:28:46;3.70;99.90
20744;DHT22;56303;52.160;-0.428;2024-03-02T04:31:15;3.60;99.90
20744;DHT22;56303;52.160;-0.428;2024-03-02T04:33:42;3.50;99.90
20744;DHT22;56303;52.160;-0.428;2024-03-02T04:36:09;3.40;99.90
20744;DHT22;56303;52.160;-0.428;2024-03-02T04:38:37;3.40;99.90
20744;DHT22;56303;52.160;-0.428;2024-03-02T04:41:05;3.40;99.90
20744;DHT22;56303;52.160;-0.428;2024-03-02T04:43:34;3.20;99.90
20744;DHT22;56303;52.160;-0.428;2024-03-02T04:46:01;3.20;99.90
20744;DHT22;56303;52.160;-0.428;2024-03-02T04:48:29;3.00;99.90
20744;DHT22;56303;52.160;-0.428;2024-03-02T04:50:56;3.00;99.90
20744;DHT22;56303;52.160;-0.428;2024-03-02T04:53:23;3.10;99.90
20744;DHT22;56303;52.160;-0.428;2024-03-02T04:55:50;3.20;99.90
20744;DHT22;56303;52.160;-0.428;2024-03-02T04:58:35;3.30;99.90
20744;DHT22;56303;52.160;-0.428;2024-03-02T05:01:02;3.40;99.90
20744;DHT22;56303;52.160;-0.428;2024-03-02T05:03:29;3.30;99.90
20744;DHT22;56303;52.160;-0.428;2024-03-02T05:05:56;3.40;99.90
20744;DHT22;56303;52.160;-0.428;2024-03-02T05:08:23;3.40;99.90
20744;DHT22;56303;52.160;-0.428;2024-03-02T05:10:50;3.40;99.90
20744;DHT22;56303;52.160;-0.428;2024-03-02T05:13:17;3.40;99.90
20744;DHT22;56303;52.160;-0.428;2024-03-02T05:15:44;3.40;99.90
20744;DHT22;56303;52.160;-0.428;2024-03-02T05:18:11;3.40;99.90
20744;DHT22;56303;52.160;-0.428;2024-03-02T05:20:38;3.40;99.90
20744;DHT22;56303;52.160;-0.428;2024-03-02T05:23:05;3.50;99.90
20744;DHT22;56303;52.160;-0.428;2024-03-02T05:25:32;3.70;99.90
20744;DHT22;56303;52.160;-0.428;2024-03-02T05:27:59;3.70;99.90
20744;DHT22;56303;52.160;-0.428;2024-03-02T05:30:26;3.80;99.90
20744;DHT22;56303;52.160;-0.428;2024-03-02T05:32:53;3.90;99.90
20744;DHT22;56303;52.160;-0.428;2024-03-02T05:35:20;3.90;99.90
20744;DHT22;56303;52.160;-0.428;2024-03-02T05:37:47;4.00;99.90
20744;DHT22;56303;52.160;-0.428;2024-03-02T05:40:14;4.00;99.90
20744;DHT22;56303;52.160;-0.428;2024-03-02T05:42:40;2.90;99.90
20744;DHT22;56303;52.160;-0.428;2024-03-02T05:45:09;3.90;99.90
20744;DHT22;56303;52.160;-0.428;2024-03-02T05:47:36;4.00;99.90
20744;DHT22;56303;52.160;-0.428;2024-03-02T05:50:03;4.00;99.90
20744;DHT22;56303;52.160;-0.428;2024-03-02T05:52:30;4.00;99.90
20744;DHT22;56303;52.160;-0.428;2024-03-02T05:54:57;3.90;99.90
20744;DHT22;56303;52.160;-0.428;2024-03-02T05:57:24;4.00;99.90
20744;DHT22;56303;52.160;-0.428;2024-03-02T06:00:15;4.00;99.90
20744;DHT22;56303;52.160;-0.428;2024-03-02T06:02:43;4.10;99.90
20744;DHT22;56303;52.160;-0.428;2024-03-02T06:05:10;4.20;99.90
20744;DHT22;56303;52.160;-0.428;2024-03-02T06:07:37;4.00;99.90
20744;DHT22;56303;52.160;-0.428;2024-03-02T06:10:05;4.00;99.90
20744;DHT22;56303;52.160;-0.428;2024-03-02T06:12:38;4.40;99.90
20744;DHT22;56303;52.160;-0.428;2024-03-02T06:15:05;4.20;99.90
20744;DHT22;56303;52.160;-0.428;2024-03-02T06:17:32;4.30;99.90
20744;DHT22;56303;52.160;-0.428;2024-03-02T06:19:59;4.40;99.90
20744;DHT22;56303;52.160;-0.428;2024-03-02T06:22:26;4.40;99.90
20744;DHT22;56303;52.160;-0.428;2024-03-02T06:24:53;4.40;99.90
20744;DHT22;56303;52.160;-0.428;2024-03-02T06:27:20;4.30;99.90
20744;DHT22;56303;52.160;-0.428;2024-03-02T06:29:47;4.30;99.90
20744;DHT22;56303;52.160;-0.428;2024-03-02T06:32:15;4.30;99.90
20744;DHT22;56303;52.160;-0.428;2024-03-02T06:34:42;4.30;99.90
20744;DHT22;56303;52.160;-0.428;2024-03-02T06:37:08;4.30;99.90
20744;DHT22;56303;52.160;-0.428;2024-03-02T06:39:35;4.30;99.90
20744;DHT22;56303;52.160;-0.428;2024-03-02T06:42:03;4.30;99.90
20744;DHT22;56303;52.160;-0.428;2024-03-02T06:44:30;4.30;99.90
20744;DHT22;56303;52.160;-0.428;2024-03-02T06:46:58;4.40;99.90
20744;DHT22;56303;52.160;-0.428;2024-03-02T06:49:24;4.40;99.90
20744;DHT22;56303;52.160;-0.428;2024-03-02T06:51:51;4.50;99.90
20744;DHT22;56303;52.160;-0.428;2024-03-02T06:54:18;4.50;99.90
20744;DHT22;56303;52.160;-0.428;2024-03-02T06:56:45;4.60;99.90
20744;DHT22;56303;52.160;-0.428;2024-03-02T06:59:13;4.70;99.90
20744;DHT22;56303;52.160;-0.428;2024-03-02T07:01:40;4.70;99.90
20744;DHT22;56303;52.160;-0.428;2024-03-02T07:04:07;4.70;99.90
20744;DHT22;56303;52.160;-0.428;2024-03-02T07:06:34;4.70;99.90
20744;DHT22;56303;52.160;-0.428;2024-03-02T07:09:01;4.70;99.90
20744;DHT22;56303;52.160;-0.428;2024-03-02T07:11:28;4.80;99.90
20744;DHT22;56303;52.160;-0.428;2024-03-02T07:13:55;4.80;99.90
20744;DHT22;56303;52.160;-0.428;2024-03-02T07:16:22;4.80;99.90
20744;DHT22;56303;52.160;-0.428;2024-03-02T07:18:55;4.80;99.90
20744;DHT22;56303;52.160;-0.428;2024-03-02T07:21:23;4.80;99.90
20744;DHT22;56303;52.160;-0.428;2024-03-02T07:23:50;4.90;99.90
20744;DHT22;56303;52.160;-0.428;2024-03-02T07:26:17;4.90;99.90
20744;DHT22;56303;52.160;-0.428;2024-03-02T07:28:51;4.80;99.90
20744;DHT22;56303;52.160;-0.428;2024-03-02T07:31:18;4.90;99.90
20744;DHT22;56303;52.160;-0.428;2024-03-02T07:33:45;5.10;99.90
20744;DHT22;56303;52.160;-0.428;2024-03-02T07:36:13;5.10;99.90
20744;DHT22;56303;52.160;-0.428;2024-03-02T07:38:40;5.20;99.90
20744;DHT22;56303;52.160;-0.428;2024-03-02T07:41:08;5.40;99.90
20744;DHT22;56303;52.160;-0.428;2024-03-02T07:43:35;5.40;99.90
20744;DHT22;56303;52.160;-0.428;2024-03-02T07:46:02;5.20;99.90
20744;DHT22;56303;52.160;-0.428;2024-03-02T07:48:30;5.40;99.90
20744;DHT22;56303;52.160;-0.428;2024-03-02T07:50:57;5.70;99.90
20744;DHT22;56303;52.160;-0.428;2024-03-02T07:53:24;5.50;99.90
20744;DHT22;56303;52.160;-0.428;2024-03-02T07:55:51;5.40;99.90
20744;DHT22;56303;52.160;-0.428;2024-03-02T07:58:19;5.30;99.90
20744;DHT22;56303;52.160;-0.428;2024-03-02T08:00:46;5.30;99.90
20744;DHT22;56303;52.160;-0.428;2024-03-02T08:03:14;5.30;99.90
20744;DHT22;56303;52.160;-0.428;2024-03-02T08:05:41;5.30;99.90
20744;DHT22;56303;52.160;-0.428;2024-03-02T08:08:08;5.40;99.90
20744;DHT22;56303;52.160;-0.428;2024-03-02T08:10:35;5.30;99.90
20744;DHT22;56303;52.160;-0.428;2024-03-02T08:13:02;5.40;99.90
20744;DHT22;56303;52.160;-0.428;2024-03-02T08:15:29;5.40;99.90
20744;DHT22;56303;52.160;-0.428;2024-03-02T08:17:56;5.50;99.90
20744;DHT22;56303;52.160;-0.428;2024-03-02T08:20:23;5.70;99.90
20744;DHT22;56303;52.160;-0.428;2024-03-02T08:22:50;5.70;99.90
20744;DHT22;56303;52.160;-0.428;2024-03-02T08:25:17;5.70;99.90
20744;DHT22;56303;52.160;-0.428;2024-03-02T08:27:44;5.80;99.90
20744;DHT22;56303;52.160;-0.428;2024-03-02T08:30:12;5.90;99.90
20744;DHT22;56303;52.160;-0.428;2024-03-02T08:32:39;6.10;99.90
20744;DHT22;56303;52.160;-0.428;2024-03-02T08:35:08;5.80;99.90
20744;DHT22;56303;52.160;-0.428;2024-03-02T08:37:35;6.00;99.90
20744;DHT22;56303;52.160;-0.428;2024-03-02T08:40:04;6.30;99.90
20744;DHT22;56303;52.160;-0.428;2024-03-02T08:42:34;6.30;99.90
20744;DHT22;56303;52.160;-0.428;2024-03-02T08:45:01;6.20;99.90
20744;DHT22;56303;52.160;-0.428;2024-03-02T08:47:28;6.20;99.90
20744;DHT22;56303;52.160;-0.428;2024-03-02T08:49:55;6.30;99.90
20744;DHT22;56303;52.160;-0.428;2024-03-02T08:52:26;6.30;99.90
20744;DHT22;56303;52.160;-0.428;2024-03-02T08:54:53;6.40;99.90
20744;DHT22;56303;52.160;-0.428;2024-03-02T08:57:20;6.60;99.90
20744;DHT22;56303;52.160;-0.428;2024-03-02T08:59:47;6.50;99.90
20744;DHT22;56303;52.160;-0.428;2024-03-02T09:02:14;6.60;99.90
20744;DHT22;56303;52.160;-0.428;2024-03-02T09:04:41;6.80;99.90
20744;DHT22;56303;52.160;-0.428;2024-03-02T09:07:08;7.00;99.90
20744;DHT22;56303;52.160;-0.428;2024-03-02T09:09:35;7.00;99.90
20744;DHT22;56303;52.160;-0.428;2024-03-02T09:12:02;7.20;99.90
20744;DHT22;56303;52.160;-0.428;2024-03-02T09:14:29;7.10;99.90
20744;DHT22;56303;52.160;-0.428;2024-03-02T09:16:57;7.20;99.90
20744;DHT22;56303;52.160;-0.428;2024-03-02T09:19:23;7.30;99.90
20744;DHT22;56303;52.160;-0.428;2024-03-02T09:21:50;6.00;99.90
20744;DHT22;56303;52.160;-0.428;2024-03-02T09:24:17;6.60;99.90
20744;DHT22;56303;52.160;-0.428;2024-03-02T09:26:44;6.20;99.90
20744;DHT22;56303;52.160;-0.428;2024-03-02T09:29:11;7.20;99.90
20744;DHT22;56303;52.160;-0.428;2024-03-02T09:31:42;5.60;99.90
20744;DHT22;56303;52.160;-0.428;2024-03-02T09:34:09;5.80;99.90
20744;DHT22;56303;52.160;-0.428;2024-03-02T09:36:36;5.70;99.90
20744;DHT22;56303;52.160;-0.428;2024-03-02T09:39:03;5.80;99.90
20744;DHT22;56303;52.160;-0.428;2024-03-02T09:41:32;6.00;99.90
20744;DHT22;56303;52.160;-0.428;2024-03-02T09:44:00;5.80;99.90
20744;DHT22;56303;52.160;-0.428;2024-03-02T09:46:27;5.80;99.90
20744;DHT22;56303;52.160;-0.428;2024-03-02T09:48:54;6.10;99.90
20744;DHT22;56303;52.160;-0.428;2024-03-02T09:51:22;6.10;99.90
20744;DHT22;56303;52.160;-0.428;2024-03-02T09:53:52;6.00;99.90
20744;DHT22;56303;52.160;-0.428;2024-03-02T09:56:25;6.20;99.90
20744;DHT22;56303;52.160;-0.428;2024-03-02T09:58:54;6.20;99.90
20744;DHT22;56303;52.160;-0.428;2024-03-02T10:01:20;6.40;99.90
20744;DHT22;56303;52.160;-0.428;2024-03-02T10:03:48;6.00;99.90
20744;DHT22;56303;52.160;-0.428;2024-03-02T10:06:23;6.40;99.90
20744;DHT22;56303;52.160;-0.428;2024-03-02T10:08:51;6.50;99.90
20744;DHT22;56303;52.160;-0.428;2024-03-02T10:11:32;6.60;99.90
20744;DHT22;56303;52.160;-0.428;2024-03-02T10:14:18;6.90;99.90
20744;DHT22;56303;52.160;-0.428;2024-03-02T10:16:45;7.30;99.90
20744;DHT22;56303;52.160;-0.428;2024-03-02T10:19:17;7.40;99.90
20744;DHT22;56303;52.160;-0.428;2024-03-02T10:21:52;7.40;99.90
20744;DHT22;56303;52.160;-0.428;2024-03-02T10:24:21;7.30;99.90
20744;DHT22;56303;52.160;-0.428;2024-03-02T10:26:49;7.20;99.90
20744;DHT22;56303;52.160;-0.428;2024-03-02T10:29:16;7.60;99.90
20744;DHT22;56303;52.160;-0.428;2024-03-02T10:31:45;7.90;99.90
20744;DHT22;56303;52.160;-0.428;2024-03-02T10:34:13;7.90;99.90
20744;DHT22;56303;52.160;-0.428;2024-03-02T10:36:42;8.30;99.90
20744;DHT22;56303;52.160;-0.428;2024-03-02T10:39:10;8.30;99.90
20744;DHT22;56303;52.160;-0.428;2024-03-02T10:41:39;8.50;99.90
20744;DHT22;56303;52.160;-0.428;2024-03-02T10:44:08;8.60;99.90
20744;DHT22;56303;52.160;-0.428;2024-03-02T10:46:37;8.50;99.90
20744;DHT22;56303;52.160;-0.428;2024-03-02T10:49:05;8.10;99.90
20744;DHT22;56303;52.160;-0.428;2024-03-02T10:51:35;8.10;99.90
20744;DHT22;56303;52.160;-0.428;2024-03-02T10:54:04;8.00;99.90
20744;DHT22;56303;52.160;-0.428;2024-03-02T10:56:40;8.00;99.90
20744;DHT22;56303;52.160;-0.428;2024-03-02T11:01:58;8.10;99.90
20744;DHT22;56303;52.160;-0.428;2024-03-02T11:04:32;8.20;99.90
20744;DHT22;56303;52.160;-0.428;2024-03-02T11:07:06;8.70;99.90
20744;DHT22;56303;52.160;-0.428;2024-03-02T11:09:41;8.50;99.90
20744;DHT22;56303;52.160;-0.428;2024-03-02T11:12:27;8.70;99.90
20744;DHT22;56303;52.160;-0.428;2024-03-02T11:14:56;8.80;99.90
20744;DHT22;56303;52.160;-0.428;2024-03-02T11:17:23;8.60;99.90
20744;DHT22;56303;52.160;-0.428;2024-03-02T11:19:51;9.10;99.90
20744;DHT22;56303;52.160;-0.428;2024-03-02T11:22:19;8.20;99.90
20744;DHT22;56303;52.160;-0.428;2024-03-02T11:24:51;8.60;99.90
20744;DHT22;56303;52.160;-0.428;2024-03-02T11:33:01;8.70;99.90
20744;DHT22;56303;52.160;-0.428;2024-03-02T11:35:41;8.60;99.90
20744;DHT22;56303;52.160;-0.428;2024-03-02T11:38:16;8.50;99.90
20744;DHT22;56303;52.160;-0.428;2024-03-02T11:40:44;8.50;99.90
20744;DHT22;56303;52.160;-0.428;2024-03-02T11:43:14;8.20;99.90
20744;DHT22;56303;52.160;-0.428;2024-03-02T11:45:43;8.00;99.90
20744;DHT22;56303;52.160;-0.428;2024-03-02T11:48:15;7.80;99.90
20744;DHT22;56303;52.160;-0.428;2024-03-02T11:50:46;8.10;99.90
20744;DHT22;56303;52.160;-0.428;2024-03-02T11:53:14;8.40;99.90
20744;DHT22;56303;52.160;-0.428;2024-03-02T11:55:42;8.70;99.90
20744;DHT22;56303;52.160;-0.428;2024-03-02T11:58:16;9.20;99.90
20744;DHT22;56303;52.160;-0.428;2024-03-02T12:00:51;9.30;99.90
20744;DHT22;56303;52.160;-0.428;2024-03-02T12:03:21;9.00;99.90
20744;DHT22;56303;52.160;-0.428;2024-03-02T12:05:50;9.20;99.90
20744;DHT22;56303;52.160;-0.428;2024-03-02T12:08:17;9.30;99.90
20744;DHT22;56303;52.160;-0.428;2024-03-02T12:11:14;9.30;99.90
20744;DHT22;56303;52.160;-0.428;2024-03-02T12:13:52;8.70;99.90
20744;DHT22;56303;52.160;-0.428;2024-03-02T12:16:27;8.70;99.90
20744;DHT22;56303;52.160;-0.428;2024-03-02T12:18:55;8.60;99.90
20744;DHT22;56303;52.160;-0.428;2024-03-02T12:21:22;8.50;99.90
20744;DHT22;56303;52.160;-0.428;2024-03-02T12:23:49;8.70;99.90
20744;DHT22;56303;52.160;-0.428;2024-03-02T12:26:16;8.20;99.90
20744;DHT22;56303;52.160;-0.428;2024-03-02T12:28:43;8.20;99.90
20744;DHT22;56303;52.160;-0.428;2024-03-02T12:31:11;8.30;99.90
20744;DHT22;56303;52.160;-0.428;2024-03-02T12:33:38;8.60;99.90
20744;DHT22;56303;52.160;-0.428;2024-03-02T12:36:13;9.00;99.90
20744;DHT22;56303;52.160;-0.428;2024-03-02T12:38:46;9.20;99.90
20744;DHT22;56303;52.160;-0.428;2024-03-02T12:41:16;8.80;99.90
20744;DHT22;56303;52.160;-0.428;2024-03-02T12:43:43;8.70;99.90
20744;DHT22;56303;52.160;-0.428;2024-03-02T12:46:11;8.60;99.90
20744;DHT22;56303;52.160;-0.428;2024-03-02T12:48:38;8.50;99.90
20744;DHT22;56303;52.160;-0.428;2024-03-02T12:51:08;8.70;99.90
20744;DHT22;56303;52.160;-0.428;2024-03-02T12:53:35;8.90;99.90
20744;DHT22;56303;52.160;-0.428;2024-03-02T12:56:02;9.20;99.90
20744;DHT22;56303;52.160;-0.428;2024-03-02T12:58:28;9.50;99.90
20744;DHT22;56303;52.160;-0.428;2024-03-02T13:01:09;9.40;99.90
20744;DHT22;56303;52.160;-0.428;2024-03-02T13:03:38;9.10;99.90
20744;DHT22;56303;52.160;-0.428;2024-03-02T13:06:06;9.20;99.90
20744;DHT22;56303;52.160;-0.428;2024-03-02T13:08:34;9.60;99.90
20744;DHT22;56303;52.160;-0.428;2024-03-02T13:11:02;9.50;99.90
20744;DHT22;56303;52.160;-0.428;2024-03-02T13:13:31;9.70;99.90
20744;DHT22;56303;52.160;-0.428;2024-03-02T13:15:59;8.30;99.90
20744;DHT22;56303;52.160;-0.428;2024-03-02T13:18:26;9.10;99.90
20744;DHT22;56303;52.160;-0.428;2024-03-02T13:20:54;9.10;99.90
20744;DHT22;56303;52.160;-0.428;2024-03-02T13:23:25;8.90;99.90
20744;DHT22;56303;52.160;-0.428;2024-03-02T13:25:58;10.60;99.90
20744;DHT22;56303;52.160;-0.428;2024-03-02T13:28:28;9.20;99.90
20744;DHT22;56303;52.160;-0.428;2024-03-02T13:30:54;9.10;99.90
20744;DHT22;56303;52.160;-0.428;2024-03-02T13:33:21;9.10;99.90
20744;DHT22;56303;52.160;-0.428;2024-03-02T13:35:51;9.30;99.90
20744;DHT22;56303;52.160;-0.428;2024-03-02T13:38:21;9.10;99.90
20744;DHT22;56303;52.160;-0.428;2024-03-02T13:40:49;9.30;99.90
20744;DHT22;56303;52.160;-0.428;2024-03-02T13:43:19;10.70;99.90
20744;DHT22;56303;52.160;-0.428;2024-03-02T13:45:47;10.50;99.90
20744;DHT22;56303;52.160;-0.428;2024-03-02T13:48:14;11.40;99.90
20744;DHT22;56303;52.160;-0.428;2024-03-02T13:50:41;12.40;99.90
20744;DHT22;56303;52.160;-0.428;2024-03-02T13:53:08;11.80;99.90
20744;DHT22;56303;52.160;-0.428;2024-03-02T13:55:35;11.20;99.90
20744;DHT22;56303;52.160;-0.428;2024-03-02T13:58:02;10.70;99.90
20744;DHT22;56303;52.160;-0.428;2024-03-02T14:00:30;10.50;99.90
20744;DHT22;56303;52.160;-0.428;2024-03-02T14:02:57;9.50;99.90
20744;DHT22;56303;52.160;-0.428;2024-03-02T14:05:24;9.50;99.90
20744;DHT22;56303;52.160;-0.428;2024-03-02T14:07:53;9.70;99.90
20744;DHT22;56303;52.160;-0.428;2024-03-02T14:10:21;9.80;99.90
20744;DHT22;56303;52.160;-0.428;2024-03-02T14:12:49;9.50;99.90
20744;DHT22;56303;52.160;-0.428;2024-03-02T14:15:16;9.20;99.90
20744;DHT22;56303;52.160;-0.428;2024-03-02T14:17:47;9.10;99.90
20744;DHT22;56303;52.160;-0.428;2024-03-02T14:20:14;9.30;99.90
20744;DHT22;56303;52.160;-0.428;2024-03-02T14:22:41;9.30;99.90
20744;DHT22;56303;52.160;-0.428;2024-03-02T14:25:08;9.60;99.90
20744;DHT22;56303;52.160;-0.428;2024-03-02T14:27:35;9.60;99.90
20744;DHT22;56303;52.160;-0.428;2024-03-02T14:30:23;9.60;99.90
20744;DHT22;56303;52.160;-0.428;2024-03-02T14:32:50;9.80;99.90
20744;DHT22;56303;52.160;-0.428;2024-03-02T14:35:17;10.00;99.90
20744;DHT22;56303;52.160;-0.428;2024-03-02T14:37:47;10.10;99.90
20744;DHT22;56303;52.160;-0.428;2024-03-02T14:40:15;10.60;99.90
20744;DHT22;56303;52.160;-0.428;2024-03-02T14:42:42;10.80;99.90
20744;DHT22;56303;52.160;-0.428;2024-03-02T14:45:14;10.90;99.90
20744;DHT22;56303;52.160;-0.428;2024-03-02T14:47:41;10.60;99.90
20744;DHT22;56303;52.160;-0.428;2024-03-02T14:50:08;11.10;99.90
20744;DHT22;56303;52.160;-0.428;2024-03-02T14:52:36;11.20;99.90
20744;DHT22;56303;52.160;-0.428;2024-03-02T14:55:04;11.30;99.90
20744;DHT22;56303;52.160;-0.428;2024-03-02T14:57:31;11.80;99.90
20744;DHT22;56303;52.160;-0.428;2024-03-02T15:00:00;12.40;99.90
20744;DHT22;56303;52.160;-0.428;2024-03-02T15:02:29;11.90;99.90
20744;DHT22;56303;52.160;-0.428;2024-03-02T15:04:56;11.50;99.90
20744;DHT22;56303;52.160;-0.428;2024-03-02T15:07:23;11.00;99.90
20744;DHT22;56303;52.160;-0.428;2024-03-02T15:09:50;10.30;99.90
20744;DHT22;56303;52.160;-0.428;2024-03-02T15:12:17;10.90;99.90
20744;DHT22;56303;52.160;-0.428;2024-03-02T15:14:44;12.10;99.90
20744;DHT22;56303;52.160;-0.428;2024-03-02T15:17:16;12.80;99.90
20744;DHT22;56303;52.160;-0.428;2024-03-02T15:19:45;12.20;99.90
20744;DHT22;56303;52.160;-0.428;2024-03-02T15:22:12;11.70;99.90
20744;DHT22;56303;52.160;-0.428;2024-03-02T15:24:40;11.30;99.90
20744;DHT22;56303;52.160;-0.428;2024-03-02T15:27:07;10.90;99.90
20744;DHT22;56303;52.160;-0.428;2024-03-02T15:29:35;10.30;99.90
20744;DHT22;56303;52.160;-0.428;2024-03-02T15:32:03;9.90;99.90
20744;DHT22;56303;52.160;-0.428;2024-03-02T15:34:33;9.60;99.90
20744;DHT22;56303;52.160;-0.428;2024-03-02T15:37:01;10.30;99.90
20744;DHT22;56303;52.160;-0.428;2024-03-02T15:39:31;11.50;99.90
20744;DHT22;56303;52.160;-0.428;2024-03-02T15:41:58;12.30;99.90
20744;DHT22;56303;52.160;-0.428;2024-03-02T15:44:28;11.50;99.90
20744;DHT22;56303;52.160;-0.428;2024-03-02T15:46:55;11.30;99.90